sensor_id;sensor_type;location;lat;lon;timestamp;pressure;altitude;pressure_sealevel;temperature
24586;BMP280;12743;52.262;6.172;2023-03-23T00:01:14;98542.91;;;10.75
24586;BMP280;12743;52.262;6.172;2023-03-23T00:03:40;98538.03;;;10.74
24586;BMP280;12743;52.262;6.172;2023-03-23T00:06:07;98568.38;;;10.93
24586;BMP280;12743;52.262;6.172;2023-03-23T00:08:34;98564.28;;;10.92
24586;BMP280;12743;52.262;6.172;2023-03-23T00:11:05;98494.91;;;10.43
24586;BMP280;12743;52.262;6.172;2023-03-23T00:13:33;98560.13;;;10.80
24586;BMP280;12743;52.262;6.172;2023-03-23T00:15:59;98533.19;;;10.69
24586;BMP280;12743;52.262;6.172;2023-03-23T00:18:24;98571.75;;;10.90
24586;BMP280;12743;52.262;6.172;2023-03-23T00:20:52;98482.94;;;10.32
24586;BMP280;12743;52.262;6.172;2023-03-23T00:23:19;98541.38;;;10.78
24586;BMP280;12743;52.262;6.172;2023-03-23T00:25:49;98538.38;;;10.79
24586;BMP280;12743;52.262;6.172;2023-03-23T00:28:16;98548.50;;;10.88
24586;BMP280;12743;52.262;6.172;2023-03-23T00:30:43;98556.75;;;10.87
24586;BMP280;12743;52.262;6.172;2023-03-23T00:33:10;98520.75;;;10.69
24586;BMP280;12743;52.262;6.172;2023-03-23T00:35:40;98398.22;;;9.82
24586;BMP280;12743;52.262;6.172;2023-03-23T00:38:05;98552.25;;;10.87
24586;BMP280;12743;52.262;6.172;2023-03-23T00:40:31;98513.28;;;10.61
24586;BMP280;12743;52.262;6.172;2023-03-23T00:43:01;98505.41;;;10.57
24586;BMP280;12743;52.262;6.172;2023-03-23T00:45:29;98509.91;;;10.57
24586;BMP280;12743;52.262;6.172;2023-03-23T00:47:54;98553.03;;;10.84
24586;BMP280;12743;52.262;6.172;2023-03-23T00:50:22;98530.56;;;10.69
24586;BMP280;12743;52.262;6.172;2023-03-23T00:52:48;98533.13;;;10.79
24586;BMP280;12743;52.262;6.172;2023-03-23T00:55:18;98462.69;;;10.22
24586;BMP280;12743;52.262;6.172;2023-03-23T00:57:43;98549.66;;;10.76
24586;BMP280;12743;52.262;6.172;2023-03-23T01:00:09;98569.13;;;10.86
24586;BMP280;12743;52.262;6.172;2023-03-23T01:02:36;98568.75;;;10.81
24586;BMP280;12743;52.262;6.172;2023-03-23T01:05:03;98499.38;;;10.53
24586;BMP280;12743;52.262;6.172;2023-03-23T01:07:29;98496.78;;;10.57
24586;BMP280;12743;52.262;6.172;2023-03-23T01:09:56;98499.38;;;10.78
24586;BMP280;12743;52.262;6.172;2023-03-23T01:12:23;98460.78;;;10.57
24586;BMP280;12743;52.262;6.172;2023-03-23T01:14:50;98466.38;;;10.70
24586;BMP280;12743;52.262;6.172;2023-03-23T01:17:16;98508.03;;;10.82
24586;BMP280;12743;52.262;6.172;2023-03-23T01:19:42;98404.19;;;10.49
24586;BMP280;12743;52.262;6.172;2023-03-23T01:22:07;98329.34;;;9.85
24586;BMP280;12743;52.262;6.172;2023-03-23T01:24:33;98429.69;;;10.59
24586;BMP280;12743;52.262;6.172;2023-03-23T01:26:58;98460.00;;;10.78
24586;BMP280;12743;52.262;6.172;2023-03-23T01:29:27;98452.88;;;10.86
24586;BMP280;12743;52.262;6.172;2023-03-23T01:31:55;98458.13;;;10.78
24586;BMP280;12743;52.262;6.172;2023-03-23T01:34:24;98429.63;;;10.70
24586;BMP280;12743;52.262;6.172;2023-03-23T01:36:50;98311.34;;;9.90
24586;BMP280;12743;52.262;6.172;2023-03-23T01:43:07;98175.91;;;9.06
24586;BMP280;12743;52.262;6.172;2023-03-23T01:46:25;98405.28;;;10.66
24586;BMP280;12743;52.262;6.172;2023-03-23T01:49:25;98386.22;;;10.48
24586;BMP280;12743;52.262;6.172;2023-03-23T01:53:02;98428.13;;;10.79
24586;BMP280;12743;52.262;6.172;2023-03-23T01:55:37;98285.53;;;9.75
24586;BMP280;12743;52.262;6.172;2023-03-23T01:58:04;98369.00;;;10.29
24586;BMP280;12743;52.262;6.172;2023-03-23T02:01:12;98385.47;;;10.51
24586;BMP280;12743;52.262;6.172;2023-03-23T02:03:41;98304.66;;;9.82
24586;BMP280;12743;52.262;6.172;2023-03-23T02:06:08;98253.38;;;9.53
24586;BMP280;12743;52.262;6.172;2023-03-23T02:08:57;98388.47;;;10.39
24586;BMP280;12743;52.262;6.172;2023-03-23T02:11:26;98345.78;;;10.21
24586;BMP280;12743;52.262;6.172;2023-03-23T02:13:52;98303.88;;;9.89
24586;BMP280;12743;52.262;6.172;2023-03-23T02:16:44;98369.75;;;10.37
24586;BMP280;12743;52.262;6.172;2023-03-23T02:33:34;98412.34;;;10.90
24586;BMP280;12743;52.262;6.172;2023-03-23T02:39:08;98416.06;;;10.96
24586;BMP280;12743;52.262;6.172;2023-03-23T02:41:39;98420.22;;;10.87
24586;BMP280;12743;52.262;6.172;2023-03-23T02:44:08;98406.38;;;10.79
24586;BMP280;12743;52.262;6.172;2023-03-23T02:46:36;98376.81;;;10.64
24586;BMP280;12743;52.262;6.172;2023-03-23T02:49:03;98396.28;;;10.74
24586;BMP280;12743;52.262;6.172;2023-03-23T02:51:33;98391.41;;;10.76
24586;BMP280;12743;52.262;6.172;2023-03-23T02:54:01;98374.53;;;10.70
24586;BMP280;12743;52.262;6.172;2023-03-23T02:56:29;98405.59;;;10.93
24586;BMP280;12743;52.262;6.172;2023-03-23T02:58:59;98411.22;;;10.95
24586;BMP280;12743;52.262;6.172;2023-03-23T03:04:06;98368.94;;;10.68
24586;BMP280;12743;52.262;6.172;2023-03-23T03:11:54;98398.09;;;10.91
24586;BMP280;12743;52.262;6.172;2023-03-23T03:14:26;98385.00;;;10.81
24586;BMP280;12743;52.262;6.172;2023-03-23T03:17:07;98388.41;;;10.77
24586;BMP280;12743;52.262;6.172;2023-03-23T03:19:39;98309.06;;;10.28
24586;BMP280;12743;52.262;6.172;2023-03-23T03:22:07;98407.84;;;10.98
24586;BMP280;12743;52.262;6.172;2023-03-23T03:24:41;98306.09;;;10.26
24586;BMP280;12743;52.262;6.172;2023-03-23T03:27:14;98391.00;;;10.92
24586;BMP280;12743;52.262;6.172;2023-03-23T03:29:51;98389.84;;;10.89
24586;BMP280;12743;52.262;6.172;2023-03-23T03:32:22;98386.88;;;10.80
24586;BMP280;12743;52.262;6.172;2023-03-23T03:34:50;98380.13;;;10.79
24586;BMP280;12743;52.262;6.172;2023-03-23T03:37:18;98404.44;;;11.01
24586;BMP280;12743;52.262;6.172;2023-03-23T03:39:47;98405.56;;;11.00
24586;BMP280;12743;52.262;6.172;2023-03-23T03:42:13;98353.53;;;10.70
24586;BMP280;12743;52.262;6.172;2023-03-23T03:44:38;98389.13;;;10.92
24586;BMP280;12743;52.262;6.172;2023-03-23T03:47:04;98407.81;;;11.05
24586;BMP280;12743;52.262;6.172;2023-03-23T03:49:30;98421.63;;;11.09
24586;BMP280;12743;52.262;6.172;2023-03-23T03:51:56;98352.03;;;10.76
24586;BMP280;12743;52.262;6.172;2023-03-23T03:54:26;98361.03;;;10.78
24586;BMP280;12743;52.262;6.172;2023-03-23T03:56:52;98288.81;;;10.35
24586;BMP280;12743;52.262;6.172;2023-03-23T03:59:43;98390.50;;;11.14
24586;BMP280;12743;52.262;6.172;2023-03-23T04:02:46;98387.47;;;11.23
24586;BMP280;12743;52.262;6.172;2023-03-23T04:05:39;98285.78;;;10.44
24586;BMP280;12743;52.262;6.172;2023-03-23T04:08:05;98348.63;;;10.83
24586;BMP280;12743;52.262;6.172;2023-03-23T04:10:31;98345.97;;;10.86
24586;BMP280;12743;52.262;6.172;2023-03-23T04:12:58;98390.91;;;11.02
24586;BMP280;12743;52.262;6.172;2023-03-23T04:15:30;98341.16;;;10.77
24586;BMP280;12743;52.262;6.172;2023-03-23T04:17:55;98214.00;;;9.99
24586;BMP280;12743;52.262;6.172;2023-03-23T04:20:24;98313.06;;;10.67
24586;BMP280;12743;52.262;6.172;2023-03-23T04:22:53;98291.75;;;10.55
24586;BMP280;12743;52.262;6.172;2023-03-23T04:25:25;98254.00;;;10.21
24586;BMP280;12743;52.262;6.172;2023-03-23T04:27:52;98231.91;;;10.15
24586;BMP280;12743;52.262;6.172;2023-03-23T04:30:24;98398.75;;;11.13
24586;BMP280;12743;52.262;6.172;2023-03-23T04:33:03;98370.66;;;11.06
24586;BMP280;12743;52.262;6.172;2023-03-23T04:35:30;98405.81;;;11.26
24586;BMP280;12743;52.262;6.172;2023-03-23T04:38:20;98369.97;;;10.95
24586;BMP280;12743;52.262;6.172;2023-03-23T04:40:52;98323.19;;;10.62
24586;BMP280;12743;52.262;6.172;2023-03-23T04:43:37;98414.44;;;11.30
24586;BMP280;12743;52.262;6.172;2023-03-23T04:46:36;98397.22;;;11.22
24586;BMP280;12743;52.262;6.172;2023-03-23T04:49:07;98409.19;;;11.30
24586;BMP280;12743;52.262;6.172;2023-03-23T04:51:36;98411.78;;;11.34
24586;BMP280;12743;52.262;6.172;2023-03-23T04:54:15;98426.38;;;11.42
24586;BMP280;12743;52.262;6.172;2023-03-23T04:56:46;98409.56;;;11.29
24586;BMP280;12743;52.262;6.172;2023-03-23T04:59:15;98407.34;;;11.20
24586;BMP280;12743;52.262;6.172;2023-03-23T05:01:51;98395.03;;;11.07
24586;BMP280;12743;52.262;6.172;2023-03-23T05:04:19;98354.22;;;10.88
24586;BMP280;12743;52.262;6.172;2023-03-23T05:06:56;98400.97;;;11.18
24586;BMP280;12743;52.262;6.172;2023-03-23T05:09:25;98381.53;;;11.08
24586;BMP280;12743;52.262;6.172;2023-03-23T05:11:52;98337.03;;;10.69
24586;BMP280;12743;52.262;6.172;2023-03-23T05:14:17;98320.97;;;10.60
24586;BMP280;12743;52.262;6.172;2023-03-23T05:16:50;98464.69;;;11.36
24586;BMP280;12743;52.262;6.172;2023-03-23T05:19:18;98365.91;;;10.69
24586;BMP280;12743;52.262;6.172;2023-03-23T05:21:45;98466.19;;;11.44
24586;BMP280;12743;52.262;6.172;2023-03-23T05:24:11;98349.47;;;10.58
24586;BMP280;12743;52.262;6.172;2023-03-23T05:26:42;98475.16;;;11.46
24586;BMP280;12743;52.262;6.172;2023-03-23T05:29:16;98483.03;;;11.46
24586;BMP280;12743;52.262;6.172;2023-03-23T05:31:52;98487.97;;;11.37
24586;BMP280;12743;52.262;6.172;2023-03-23T05:34:19;98491.38;;;11.34
24586;BMP280;12743;52.262;6.172;2023-03-23T05:36:52;98486.50;;;11.26
24586;BMP280;12743;52.262;6.172;2023-03-23T05:39:37;98467.44;;;11.04
24586;BMP280;12743;52.262;6.172;2023-03-23T05:42:25;98497.44;;;11.14
24586;BMP280;12743;52.262;6.172;2023-03-23T05:45:03;98453.59;;;10.93
24586;BMP280;12743;52.262;6.172;2023-03-23T05:47:30;98562.63;;;11.51
24586;BMP280;12743;52.262;6.172;2023-03-23T05:50:01;98559.25;;;11.46
24586;BMP280;12743;52.262;6.172;2023-03-23T05:52:29;98539.78;;;11.33
24586;BMP280;12743;52.262;6.172;2023-03-23T05:54:58;98555.50;;;11.47
24586;BMP280;12743;52.262;6.172;2023-03-23T05:57:24;98562.66;;;11.43
24586;BMP280;12743;52.262;6.172;2023-03-23T06:00:02;98543.91;;;11.34
24586;BMP280;12743;52.262;6.172;2023-03-23T06:02:38;98532.31;;;11.25
24586;BMP280;12743;52.262;6.172;2023-03-23T06:05:06;98545.81;;;11.30
24586;BMP280;12743;52.262;6.172;2023-03-23T06:07:34;98555.13;;;11.42
24586;BMP280;12743;52.262;6.172;2023-03-23T06:10:07;98551.81;;;11.31
24586;BMP280;12743;52.262;6.172;2023-03-23T06:12:38;98558.50;;;11.42
24586;BMP280;12743;52.262;6.172;2023-03-23T06:15:15;98555.53;;;11.33
24586;BMP280;12743;52.262;6.172;2023-03-23T06:18:00;98548.78;;;11.29
24586;BMP280;12743;52.262;6.172;2023-03-23T06:20:33;98519.56;;;11.13
24586;BMP280;12743;52.262;6.172;2023-03-23T06:23:12;98516.97;;;11.06
24586;BMP280;12743;52.262;6.172;2023-03-23T06:25:39;98560.78;;;11.33
24586;BMP280;12743;52.262;6.172;2023-03-23T06:28:05;98569.41;;;11.41
24586;BMP280;12743;52.262;6.172;2023-03-23T06:30:33;98578.78;;;11.42
24586;BMP280;12743;52.262;6.172;2023-03-23T06:32:59;98594.94;;;11.40
24586;BMP280;12743;52.262;6.172;2023-03-23T06:35:44;98590.88;;;11.18
24586;BMP280;12743;52.262;6.172;2023-03-23T06:38:22;98625.75;;;11.26
24586;BMP280;12743;52.262;6.172;2023-03-23T06:40:53;98597.63;;;10.73
24586;BMP280;12743;52.262;6.172;2023-03-23T06:43:19;98540.25;;;10.33
24586;BMP280;12743;52.262;6.172;2023-03-23T06:45:47;98551.06;;;10.14
24586;BMP280;12743;52.262;6.172;2023-03-23T06:48:32;98592.00;;;10.50
24586;BMP280;12743;52.262;6.172;2023-03-23T06:50:59;98604.75;;;10.48
24586;BMP280;12743;52.262;6.172;2023-03-23T06:53:26;98545.78;;;9.96
24586;BMP280;12743;52.262;6.172;2023-03-23T06:55:54;98562.69;;;10.17
24586;BMP280;12743;52.262;6.172;2023-03-23T06:58:20;98497.75;;;9.61
24586;BMP280;12743;52.262;6.172;2023-03-23T07:00:48;98559.25;;;9.88
24586;BMP280;12743;52.262;6.172;2023-03-23T07:03:21;98544.97;;;9.68
24586;BMP280;12743;52.262;6.172;2023-03-23T07:05:46;98546.38;;;9.51
24586;BMP280;12743;52.262;6.172;2023-03-23T07:08:13;98505.88;;;9.34
24586;BMP280;12743;52.262;6.172;2023-03-23T07:10:56;98520.88;;;9.45
24586;BMP280;12743;52.262;6.172;2023-03-23T07:13:26;98608.78;;;10.11
24586;BMP280;12743;52.262;6.172;2023-03-23T07:15:57;98627.16;;;10.21
24586;BMP280;12743;52.262;6.172;2023-03-23T07:18:23;98601.63;;;10.04
24586;BMP280;12743;52.262;6.172;2023-03-23T07:20:52;98585.56;;;10.09
24586;BMP280;12743;52.262;6.172;2023-03-23T07:23:20;98611.03;;;10.12
24586;BMP280;12743;52.262;6.172;2023-03-23T07:25:52;98590.03;;;10.05
24586;BMP280;12743;52.262;6.172;2023-03-23T07:28:23;98620.41;;;10.10
24586;BMP280;12743;52.262;6.172;2023-03-23T07:30:50;98620.78;;;10.12
24586;BMP280;12743;52.262;6.172;2023-03-23T07:33:16;98550.91;;;9.61
24586;BMP280;12743;52.262;6.172;2023-03-23T07:35:45;98625.63;;;10.17
24586;BMP280;12743;52.262;6.172;2023-03-23T07:38:15;98615.53;;;10.12
24586;BMP280;12743;52.262;6.172;2023-03-23T07:40:47;98482.25;;;9.24
24586;BMP280;12743;52.262;6.172;2023-03-23T07:43:17;98622.31;;;10.34
24586;BMP280;12743;52.262;6.172;2023-03-23T07:45:56;98510.84;;;9.57
24586;BMP280;12743;52.262;6.172;2023-03-23T07:48:26;98599.75;;;10.04
24586;BMP280;12743;52.262;6.172;2023-03-23T07:50:52;98649.72;;;10.43
24586;BMP280;12743;52.262;6.172;2023-03-23T07:53:17;98638.13;;;10.51
24586;BMP280;12743;52.262;6.172;2023-03-23T07:55:52;98623.13;;;10.48
24586;BMP280;12743;52.262;6.172;2023-03-23T07:58:38;98495.53;;;9.63
24586;BMP280;12743;52.262;6.172;2023-03-23T08:01:04;98644.50;;;10.64
24586;BMP280;12743;52.262;6.172;2023-03-23T08:03:32;98514.34;;;9.93
24586;BMP280;12743;52.262;6.172;2023-03-23T08:06:26;98546.94;;;10.13
24586;BMP280;12743;52.262;6.172;2023-03-23T08:09:09;98608.09;;;10.56
24586;BMP280;12743;52.262;6.172;2023-03-23T08:11:57;98584.13;;;10.43
24586;BMP280;12743;52.262;6.172;2023-03-23T08:14:45;98583.03;;;10.65
24586;BMP280;12743;52.262;6.172;2023-03-23T08:17:32;98623.50;;;10.96
24586;BMP280;12743;52.262;6.172;2023-03-23T08:20:20;98622.03;;;10.99
24586;BMP280;12743;52.262;6.172;2023-03-23T08:23:05;98644.53;;;11.14
24586;BMP280;12743;52.262;6.172;2023-03-23T08:25:52;98655.03;;;11.10
24586;BMP280;12743;52.262;6.172;2023-03-23T08:28:39;98585.66;;;10.58
24586;BMP280;12743;52.262;6.172;2023-03-23T08:31:10;98665.19;;;11.05
24586;BMP280;12743;52.262;6.172;2023-03-23T08:34:01;98627.25;;;10.70
24586;BMP280;12743;52.262;6.172;2023-03-23T08:36:57;98655.03;;;10.96
24586;BMP280;12743;52.262;6.172;2023-03-23T08:39:45;98665.91;;;10.91
24586;BMP280;12743;52.262;6.172;2023-03-23T08:42:33;98671.94;;;10.92
24586;BMP280;12743;52.262;6.172;2023-03-23T08:45:12;98640.38;;;10.70
24586;BMP280;12743;52.262;6.172;2023-03-23T08:48:05;98680.91;;;10.94
24586;BMP280;12743;52.262;6.172;2023-03-23T08:51:02;98673.78;;;10.91
24586;BMP280;12743;52.262;6.172;2023-03-23T08:53:54;98625.34;;;10.39
24586;BMP280;12743;52.262;6.172;2023-03-23T08:56:43;98611.88;;;10.51
24586;BMP280;12743;52.262;6.172;2023-03-23T08:59:30;98632.88;;;10.62
24586;BMP280;12743;52.262;6.172;2023-03-23T09:02:26;98652.00;;;10.80
24586;BMP280;12743;52.262;6.172;2023-03-23T09:05:14;98671.16;;;10.95
24586;BMP280;12743;52.262;6.172;2023-03-23T09:07:54;98650.13;;;10.73
24586;BMP280;12743;52.262;6.172;2023-03-23T09:10:21;98668.16;;;10.82
24586;BMP280;12743;52.262;6.172;2023-03-23T09:12:48;98652.38;;;10.57
24586;BMP280;12743;52.262;6.172;2023-03-23T09:15:16;98611.09;;;10.37
24586;BMP280;12743;52.262;6.172;2023-03-23T09:17:47;98686.16;;;10.84
24586;BMP280;12743;52.262;6.172;2023-03-23T09:20:18;98712.81;;;11.03
24586;BMP280;12743;52.262;6.172;2023-03-23T09:22:48;98687.69;;;10.92
24586;BMP280;12743;52.262;6.172;2023-03-23T09:25:17;98692.94;;;10.99
24586;BMP280;12743;52.262;6.172;2023-03-23T09:27:44;98597.97;;;10.33
24586;BMP280;12743;52.262;6.172;2023-03-23T09:30:13;98717.72;;;11.15
24586;BMP280;12743;52.262;6.172;2023-03-23T09:32:40;98689.94;;;11.07
24586;BMP280;12743;52.262;6.172;2023-03-23T09:35:08;98714.31;;;11.29
24586;BMP280;12743;52.262;6.172;2023-03-23T09:37:38;98707.19;;;11.22
24586;BMP280;12743;52.262;6.172;2023-03-23T09:40:10;98529.75;;;10.16
24586;BMP280;12743;52.262;6.172;2023-03-23T09:51:29;98746.19;;;11.63
24586;BMP280;12743;52.262;6.172;2023-03-23T09:54:04;98752.22;;;11.67
24586;BMP280;12743;52.262;6.172;2023-03-23T09:56:32;98737.97;;;11.64
24586;BMP280;12743;52.262;6.172;2023-03-23T10:01:40;98783.38;;;11.96
24586;BMP280;12743;52.262;6.172;2023-03-23T10:04:29;98798.78;;;11.94
24586;BMP280;12743;52.262;6.172;2023-03-23T10:07:06;98818.72;;;11.81
24586;BMP280;12743;52.262;6.172;2023-03-23T10:09:33;98818.31;;;12.11
24586;BMP280;12743;52.262;6.172;2023-03-23T10:12:13;98767.25;;;11.73
24586;BMP280;12743;52.262;6.172;2023-03-23T10:17:22;98931.75;;;12.38
24586;BMP280;12743;52.262;6.172;2023-03-23T10:25:49;99061.13;;;12.85
24586;BMP280;12743;52.262;6.172;2023-03-23T10:28:20;99023.84;;;12.80
24586;BMP280;12743;52.262;6.172;2023-03-23T10:30:55;99037.75;;;12.87
24586;BMP280;12743;52.262;6.172;2023-03-23T10:33:47;98932.16;;;12.22
24586;BMP280;12743;52.262;6.172;2023-03-23T10:38:47;99069.41;;;12.66
24586;BMP280;12743;52.262;6.172;2023-03-23T10:41:17;99030.25;;;12.82
24586;BMP280;12743;52.262;6.172;2023-03-23T10:43:44;99023.09;;;12.83
24586;BMP280;12743;52.262;6.172;2023-03-23T10:46:29;99091.94;;;13.17
24586;BMP280;12743;52.262;6.172;2023-03-23T10:49:01;99018.97;;;12.85
24586;BMP280;12743;52.262;6.172;2023-03-23T10:51:35;99176.63;;;13.33
24586;BMP280;12743;52.262;6.172;2023-03-23T10:54:03;99114.53;;;12.68
24586;BMP280;12743;52.262;6.172;2023-03-23T10:56:37;99183.41;;;13.23
24586;BMP280;12743;52.262;6.172;2023-03-23T10:59:20;99201.06;;;13.40
24586;BMP280;12743;52.262;6.172;2023-03-23T11:01:50;99207.44;;;13.67
24586;BMP280;12743;52.262;6.172;2023-03-23T11:04:17;99197.25;;;13.73
24586;BMP280;12743;52.262;6.172;2023-03-23T11:06:48;99142.00;;;13.10
24586;BMP280;12743;52.262;6.172;2023-03-23T11:09:18;99117.19;;;12.82
24586;BMP280;12743;52.262;6.172;2023-03-23T11:11:54;99255.72;;;13.40
24586;BMP280;12743;52.262;6.172;2023-03-23T11:14:28;99233.47;;;13.37
24586;BMP280;12743;52.262;6.172;2023-03-23T11:16:59;99251.56;;;13.32
24586;BMP280;12743;52.262;6.172;2023-03-23T11:19:33;99232.72;;;13.40
24586;BMP280;12743;52.262;6.172;2023-03-23T11:24:35;99323.88;;;13.17
24586;BMP280;12743;52.262;6.172;2023-03-23T11:27:03;99298.25;;;13.21
24586;BMP280;12743;52.262;6.172;2023-03-23T11:29:33;99324.25;;;13.26
24586;BMP280;12743;52.262;6.172;2023-03-23T11:34:32;99398.47;;;13.45
24586;BMP280;12743;52.262;6.172;2023-03-23T11:37:43;99342.59;;;12.73
24586;BMP280;12743;52.262;6.172;2023-03-23T11:40:18;99263.06;;;12.32
24586;BMP280;12743;52.262;6.172;2023-03-23T11:43:09;99266.44;;;12.40
24586;BMP280;12743;52.262;6.172;2023-03-23T11:45:38;99199.53;;;12.44
24586;BMP280;12743;52.262;6.172;2023-03-23T11:48:21;99331.38;;;13.11
24586;BMP280;12743;52.262;6.172;2023-03-23T11:50:51;99298.97;;;13.00
24586;BMP280;12743;52.262;6.172;2023-03-23T11:53:25;99311.69;;;12.59
24586;BMP280;12743;52.262;6.172;2023-03-23T11:58:37;99419.78;;;12.94
24586;BMP280;12743;52.262;6.172;2023-03-23T12:04:00;99448.47;;;13.03
24586;BMP280;12743;52.262;6.172;2023-03-23T12:09:28;99424.44;;;13.22
24586;BMP280;12743;52.262;6.172;2023-03-23T12:17:33;99436.19;;;13.67
24586;BMP280;12743;52.262;6.172;2023-03-23T12:27:56;99406.41;;;14.02
24586;BMP280;12743;52.262;6.172;2023-03-23T12:30:47;99448.59;;;14.51
24586;BMP280;12743;52.262;6.172;2023-03-23T12:42:18;99493.16;;;14.35
24586;BMP280;12743;52.262;6.172;2023-03-23T12:44:54;99400.78;;;13.96
24586;BMP280;12743;52.262;6.172;2023-03-23T12:47:46;99461.09;;;13.87
24586;BMP280;12743;52.262;6.172;2023-03-23T12:50:21;99421.50;;;13.66
24586;BMP280;12743;52.262;6.172;2023-03-23T12:55:36;99228.56;;;12.76
24586;BMP280;12743;52.262;6.172;2023-03-23T12:58:13;99016.00;;;12.16
24586;BMP280;12743;52.262;6.172;2023-03-23T13:01:00;98991.94;;;12.11
24586;BMP280;12743;52.262;6.172;2023-03-23T13:03:30;98961.84;;;12.30
24586;BMP280;12743;52.262;6.172;2023-03-23T13:06:22;98943.06;;;12.24
24586;BMP280;12743;52.262;6.172;2023-03-23T13:08:54;98976.88;;;12.57
24586;BMP280;12743;52.262;6.172;2023-03-23T13:11:30;98915.97;;;11.99
24586;BMP280;12743;52.262;6.172;2023-03-23T13:17:20;99021.22;;;12.76
24586;BMP280;12743;52.262;6.172;2023-03-23T13:20:02;98985.16;;;12.56
24586;BMP280;12743;52.262;6.172;2023-03-23T13:22:39;99004.59;;;13.04
24586;BMP280;12743;52.262;6.172;2023-03-23T13:25:13;99027.19;;;13.09
24586;BMP280;12743;52.262;6.172;2023-03-23T13:27:39;99025.34;;;12.84
24586;BMP280;12743;52.262;6.172;2023-03-23T13:30:18;99080.59;;;13.27
24586;BMP280;12743;52.262;6.172;2023-03-23T13:32:48;99058.81;;;12.94
24586;BMP280;12743;52.262;6.172;2023-03-23T13:35:17;98972.72;;;12.63
24586;BMP280;12743;52.262;6.172;2023-03-23T13:37:51;99091.38;;;13.60
24586;BMP280;12743;52.262;6.172;2023-03-23T13:40:31;99052.78;;;12.94
24586;BMP280;12743;52.262;6.172;2023-03-23T13:42:59;99010.69;;;12.80
24586;BMP280;12743;52.262;6.172;2023-03-23T13:48:19;99178.38;;;13.85
24586;BMP280;12743;52.262;6.172;2023-03-23T13:51:00;99254.06;;;14.09
24586;BMP280;12743;52.262;6.172;2023-03-23T13:53:47;99029.84;;;12.91
24586;BMP280;12743;52.262;6.172;2023-03-23T13:56:19;99258.44;;;14.37
24586;BMP280;12743;52.262;6.172;2023-03-23T13:58:47;99320.41;;;14.22
24586;BMP280;12743;52.262;6.172;2023-03-23T14:01:19;99339.97;;;14.31
24586;BMP280;12743;52.262;6.172;2023-03-23T14:03:55;99294.22;;;14.56
24586;BMP280;12743;52.262;6.172;2023-03-23T14:06:22;99362.50;;;14.61
24586;BMP280;12743;52.262;6.172;2023-03-23T14:09:11;99398.34;;;14.62
24586;BMP280;12743;52.262;6.172;2023-03-23T14:11:47;99355.47;;;14.26
24586;BMP280;12743;52.262;6.172;2023-03-23T14:14:20;99348.69;;;14.21
24586;BMP280;12743;52.262;6.172;2023-03-23T14:16:49;99349.34;;;14.43
24586;BMP280;12743;52.262;6.172;2023-03-23T14:19:21;99305.72;;;14.10
24586;BMP280;12743;52.262;6.172;2023-03-23T14:21:56;99272.16;;;14.11
24586;BMP280;12743;52.262;6.172;2023-03-23T14:24:27;99332.66;;;14.64
24586;BMP280;12743;52.262;6.172;2023-03-23T14:27:02;99315.47;;;14.20
24586;BMP280;12743;52.262;6.172;2023-03-23T14:29:27;99180.75;;;13.34
24586;BMP280;12743;52.262;6.172;2023-03-23T14:31:57;99365.97;;;14.40
24586;BMP280;12743;52.262;6.172;2023-03-23T14:34:26;99256.09;;;13.49
24586;BMP280;12743;52.262;6.172;2023-03-23T14:36:54;99315.94;;;13.91
24586;BMP280;12743;52.262;6.172;2023-03-23T14:39:28;99362.31;;;13.99
24586;BMP280;12743;52.262;6.172;2023-03-23T14:42:00;99135.97;;;13.20
24586;BMP280;12743;52.262;6.172;2023-03-23T14:44:30;99085.88;;;13.13
24586;BMP280;12743;52.262;6.172;2023-03-23T14:46:58;99034.41;;;12.69
24586;BMP280;12743;52.262;6.172;2023-03-23T14:49:32;98991.91;;;12.60
24586;BMP280;12743;52.262;6.172;2023-03-23T14:54:34;99033.66;;;12.69
24586;BMP280;12743;52.262;6.172;2023-03-23T14:57:18;98991.88;;;12.78
24586;BMP280;12743;52.262;6.172;2023-03-23T14:59:46;99011.00;;;13.10
24586;BMP280;12743;52.262;6.172;2023-03-23T15:02:33;99024.53;;;13.16
24586;BMP280;12743;52.262;6.172;2023-03-23T15:05:11;98955.91;;;13.33
24586;BMP280;12743;52.262;6.172;2023-03-23T15:07:40;98955.53;;;13.38
24586;BMP280;12743;52.262;6.172;2023-03-23T15:10:09;99005.00;;;13.82
24586;BMP280;12743;52.262;6.172;2023-03-23T15:12:38;99031.94;;;14.11
24586;BMP280;12743;52.262;6.172;2023-03-23T15:15:06;98830.88;;;12.69
24586;BMP280;12743;52.262;6.172;2023-03-23T15:17:37;98927.75;;;13.23
24586;BMP280;12743;52.262;6.172;2023-03-23T15:20:11;98916.19;;;13.00
24586;BMP280;12743;52.262;6.172;2023-03-23T15:23:27;98780.59;;;12.35
24586;BMP280;12743;52.262;6.172;2023-03-23T15:25:55;98806.91;;;12.46
24586;BMP280;12743;52.262;6.172;2023-03-23T15:28:29;98887.50;;;13.12
24586;BMP280;12743;52.262;6.172;2023-03-23T15:30:57;98951.53;;;13.02
24586;BMP280;12743;52.262;6.172;2023-03-23T15:33:26;98885.50;;;12.40
24586;BMP280;12743;52.262;6.172;2023-03-23T15:35:56;98944.09;;;12.76
24586;BMP280;12743;52.262;6.172;2023-03-23T15:38:26;98912.13;;;12.74
24586;BMP280;12743;52.262;6.172;2023-03-23T15:40:55;98962.34;;;13.29
24586;BMP280;12743;52.262;6.172;2023-03-23T15:43:25;99055.09;;;13.86
24586;BMP280;12743;52.262;6.172;2023-03-23T15:46:18;98981.94;;;13.24
24586;BMP280;12743;52.262;6.172;2023-03-23T15:48:47;99021.69;;;13.58
24586;BMP280;12743;52.262;6.172;2023-03-23T15:51:14;98811.44;;;12.35
24586;BMP280;12743;52.262;6.172;2023-03-23T15:53:40;98911.56;;;13.18
24586;BMP280;12743;52.262;6.172;2023-03-23T15:56:08;99066.16;;;13.63
24586;BMP280;12743;52.262;6.172;2023-03-23T15:58:36;98886.59;;;12.53
24586;BMP280;12743;52.262;6.172;2023-03-23T16:01:26;99113.91;;;13.86
24586;BMP280;12743;52.262;6.172;2023-03-23T16:04:13;99127.78;;;13.97
24586;BMP280;12743;52.262;6.172;2023-03-23T16:06:44;99038.88;;;12.93
24586;BMP280;12743;52.262;6.172;2023-03-23T16:09:16;99273.72;;;13.91
24586;BMP280;12743;52.262;6.172;2023-03-23T16:11:44;99194.31;;;13.15
24586;BMP280;12743;52.262;6.172;2023-03-23T16:14:10;99303.09;;;14.03
24586;BMP280;12743;52.262;6.172;2023-03-23T16:16:41;99150.25;;;13.26
24586;BMP280;12743;52.262;6.172;2023-03-23T16:19:11;99036.22;;;13.01
24586;BMP280;12743;52.262;6.172;2023-03-23T16:21:39;99130.44;;;13.90
24586;BMP280;12743;52.262;6.172;2023-03-23T16:24:07;99039.88;;;13.42